Cidade da Polícia Heliport

BR-0845 · Rio de Janeiro, 巴西

罗盘
风向 的 风向 350° 直升机
风: 3 kt, 1 beaufort
0 ft 1.000 2.000 3.000 4.000 5.000
CAVOK
METAR SBGL 220700Z 35003KT CAVOK 19/18 Q1015

METAR Cidade da Polícia Heliport - BR-0845

Cidade da Polícia Heliport是,巴西中的直升机场。 该机场位于纬度-22,88014和经度-43,25493。 这个机场没有ICAO代码,我们使用BR-0845作为参考。 机场在Curitiba FIR中。

该航空气象观测是针对Rio Galeão – Tom Jobim International Airport在2024年4月22日 04:00, 当地时间进行的。

机场观察

风向为350°,速度为3 kt。

天气为CAVOK。这意味着在5.000 ft或MSA(最低安全高度)以下(以较高者为准)以下没有云。这也意味着没有观测到积雨云或高耸的积云,可见度为10 km 或者更多或更高。此外,不会有雾,降雨或其他重要天气。

温度和风寒是19 °C。 露点为18 °C,相对湿度为94%。 海平面上的气压为1015 hPa (QNH)。

白天

今天,太阳从06:09升起,在17:33降落。 这适用于Cidade da Polícia Heliport,世界夏令时可能有所不同。 当地时间与世界标准时间之间的时差为-3 小时。 夏令时目前正在进行中。

公司介绍

我们没有关于这个机场的公司信息。

体会

到Vliegles.nl去找飞行课程,跳伞和其他飞行体验。 浏览页面,了解Cidade da Polícia Heliport附近所有可用的活动。 你也可以使用搜索功能来寻找你所在地附近的特定飞行课程、跳伞或其他飞行体验。

温度 & 天气

温度 19 °C
露点 18 °C
相对湿度 94%
Kp-index 2 (0-9)

白天

日出
06:09 (1:45)
中午
11:51
日落
17:33

小工具

你想在你的网站上有一个关于Cidade da Polícia Heliport的当前航空天气(METAR)的小部件吗?

显示HTML代码
报告变更